Time;durP1;ratioP1;P1;durP2;ratioP2;P2;SDS_P1;SDS_P2;PMS_P1;PMS_P2;Temp;Humidity;BMP_temperature;BMP_pressure;BME280_temperature;BME280_humidity;BME280_pressure;Samples;Min_cycle;Max_cycle;Signal;HPM_P1;HPM_P2
2022/03/05 00:00:30;;;;;;;23.92;10.32;;;5.40;60.40;;;;;;5113247;28;20095;-67
2022/03/05 00:02:57;;;;;;;24.50;10.00;;;5.40;60.30;;;;;;5113248;28;20024;-67
2022/03/05 00:05:23;;;;;;;24.75;10.07;;;5.40;60.30;;;;;;5113114;28;20024;-67
2022/03/05 00:07:49;;;;;;;25.15;10.57;;;5.40;60.30;;;;;;5095163;28;20054;-67
2022/03/05 00:10:15;;;;;;;27.08;10.48;;;5.40;60.30;;;;;;5113131;28;20024;-67
2022/03/05 00:12:40;;;;;;;29.15;10.18;;;5.30;60.20;;;;;;5095425;28;20028;-67
2022/03/05 00:15:07;;;;;;;24.63;10.15;;;5.30;60.20;;;;;;5113141;28;20031;-67
2022/03/05 00:17:32;;;;;;;26.92;10.75;;;5.30;60.20;;;;;;5113092;28;20028;-67
2022/03/05 00:19:58;;;;;;;23.67;9.98;;;5.30;61.20;;;;;;5113052;28;20073;-67
2022/03/05 00:22:24;;;;;;;22.75;10.10;;;5.30;60.40;;;;;;5113026;28;20033;-67
2022/03/05 00:24:50;;;;;;;25.30;10.25;;;5.30;60.30;;;;;;5112898;28;20071;-67
2022/03/05 00:27:17;;;;;;;28.52;11.13;;;5.30;60.30;;;;;;5112988;28;20024;-67
2022/03/05 00:29:43;;;;;;;24.52;11.00;;;5.20;60.50;;;;;;5095127;28;20027;-67
2022/03/05 00:32:09;;;;;;;26.10;10.55;;;5.20;60.60;;;;;;5112965;28;20016;-67
2022/03/05 00:34:35;;;;;;;26.55;11.05;;;5.20;60.60;;;;;;5095003;28;20073;-67
2022/03/05 00:37:00;;;;;;;23.63;9.82;;;5.20;60.50;;;;;;5116896;28;20020;-67
2022/03/05 00:39:26;;;;;;;29.85;10.52;;;5.30;60.40;;;;;;5116739;28;20032;-68
2022/03/05 00:41:52;;;;;;;23.67;10.68;;;5.30;60.30;;;;;;5116700;28;20031;-68
2022/03/05 00:44:17;;;;;;;24.58;10.80;;;5.30;60.30;;;;;;5116552;28;20032;-67
2022/03/05 00:46:43;;;;;;;24.63;10.45;;;5.20;60.20;;;;;;5116584;28;20042;-67
2022/03/05 00:49:09;;;;;;;25.85;10.82;;;5.10;60.60;;;;;;5116367;28;20047;-67
2022/03/05 00:51:34;;;;;;;29.73;11.00;;;5.10;60.70;;;;;;5116629;28;20378;-67
2022/03/05 00:54:00;;;;;;;25.90;10.10;;;5.20;60.60;;;;;;5116447;28;20058;-67
2022/03/05 00:56:26;;;;;;;25.27;10.00;;;5.20;60.40;;;;;;5098453;28;20471;-67
2022/03/05 00:58:51;;;;;;;28.30;10.18;;;5.20;60.20;;;;;;5098527;28;20028;-67
2022/03/05 01:01:17;;;;;;;26.10;10.27;;;5.20;60.00;;;;;;5116350;28;20101;-67
2022/03/05 01:03:44;;;;;;;28.25;11.60;;;5.30;60.00;;;;;;5116280;28;20028;-67
2022/03/05 01:06:10;;;;;;;25.73;10.50;;;5.10;60.10;;;;;;5116177;28;20099;-67
2022/03/05 01:08:35;;;;;;;26.63;11.02;;;5.10;60.30;;;;;;5116298;28;20036;-68
2022/03/05 01:11:01;;;;;;;23.40;10.82;;;5.00;60.40;;;;;;5098354;28;20021;-67
2022/03/05 01:13:27;;;;;;;25.10;10.23;;;5.00;60.50;;;;;;5116233;28;20363;-67
2022/03/05 01:15:53;;;;;;;24.02;10.10;;;4.90;60.70;;;;;;5116031;28;20039;-67
2022/03/05 01:18:18;;;;;;;28.05;10.93;;;4.80;60.90;;;;;;5116005;28;20032;-67
2022/03/05 01:20:44;;;;;;;24.70;9.98;;;4.90;61.10;;;;;;5115944;28;20028;-67
2022/03/05 01:23:11;;;;;;;27.65;10.90;;;4.90;60.90;;;;;;5098021;28;20032;-67
2022/03/05 01:25:36;;;;;;;30.05;11.32;;;4.80;61.00;;;;;;5115772;28;20038;-67
2022/03/05 01:28:02;;;;;;;29.35;10.82;;;4.80;61.20;;;;;;5115794;28;20024;-67
2022/03/05 01:30:28;;;;;;;26.88;10.20;;;4.80;61.10;;;;;;5115879;28;20027;-67
2022/03/05 01:32:54;;;;;;;22.92;10.43;;;4.80;61.30;;;;;;5097811;28;20053;-67
2022/03/05 01:35:19;;;;;;;30.98;11.27;;;4.70;61.30;;;;;;5115651;28;20032;-67
2022/03/05 01:37:45;;;;;;;27.95;11.40;;;4.70;61.20;;;;;;5097670;28;20035;-67
2022/03/05 01:40:11;;;;;;;32.05;10.68;;;4.80;62.10;;;;;;5115578;28;20035;-67
2022/03/05 01:42:37;;;;;;;28.08;11.25;;;4.60;61.50;;;;;;5115511;28;20028;-67
2022/03/05 01:45:03;;;;;;;25.95;9.88;;;4.60;62.00;;;;;;5115419;28;20028;-67
2022/03/05 01:47:29;;;;;;;24.55;10.30;;;4.50;61.90;;;;;;5115180;28;20024;-67
2022/03/05 01:49:55;;;;;;;26.90;11.57;;;4.50;62.00;;;;;;5115214;28;20070;-67
2022/03/05 01:52:21;;;;;;;29.20;11.32;;;4.40;62.10;;;;;;5115338;28;20054;-68
2022/03/05 01:54:47;;;;;;;29.05;11.13;;;4.40;62.30;;;;;;5115287;28;20471;-67
2022/03/05 01:57:13;;;;;;;27.05;11.27;;;4.30;62.40;;;;;;5115231;28;20020;-67
2022/03/05 01:59:39;;;;;;;27.90;10.52;;;4.40;62.30;;;;;;5115167;28;20051;-67
2022/03/05 02:02:05;;;;;;;30.38;11.10;;;4.40;62.30;;;;;;5115120;28;20024;-67
2022/03/05 02:04:31;;;;;;;28.48;10.88;;;4.40;62.10;;;;;;5115035;28;20031;-67
2022/03/05 02:06:56;;;;;;;28.58;10.40;;;4.40;62.10;;;;;;5115034;28;20070;-67
2022/03/05 02:09:22;;;;;;;30.17;10.35;;;4.30;62.20;;;;;;5115039;28;20012;-67
2022/03/05 02:11:48;;;;;;;27.05;10.07;;;4.30;62.40;;;;;;5114962;28;20032;-67
2022/03/05 02:14:18;;;;;;;27.35;11.10;;;4.30;62.60;;;;;;5114915;28;20031;-67
2022/03/05 02:16:44;;;;;;;28.33;10.93;;;4.30;62.50;;;;;;5114828;28;20024;-67
2022/03/05 02:19:10;;;;;;;30.80;11.35;;;4.40;62.30;;;;;;5114796;28;20051;-67
2022/03/05 02:21:36;;;;;;;26.92;10.20;;;4.40;62.20;;;;;;5114775;28;20024;-67
2022/03/05 02:24:02;;;;;;;25.52;10.75;;;4.40;62.00;;;;;;5114730;28;20039;-67
2022/03/05 02:26:28;;;;;;;29.60;10.93;;;4.40;61.80;;;;;;5114581;28;20028;-67
2022/03/05 02:28:53;;;;;;;27.60;11.00;;;4.40;61.80;;;;;;5114603;28;20114;-67
2022/03/05 02:31:19;;;;;;;27.95;11.02;;;4.40;61.80;;;;;;5114597;28;20051;-67
2022/03/05 02:33:45;;;;;;;28.67;11.25;;;4.40;61.80;;;;;;5114567;28;20024;-67
2022/03/05 02:36:11;;;;;;;30.58;11.85;;;4.40;61.80;;;;;;5114457;28;20486;-67
2022/03/05 02:38:37;;;;;;;29.90;11.13;;;4.30;61.90;;;;;;5114401;28;20024;-67
2022/03/05 02:41:03;;;;;;;27.13;11.18;;;4.30;62.00;;;;;;5114396;28;20024;-67
2022/03/05 02:43:29;;;;;;;27.00;11.27;;;4.30;62.00;;;;;;5114344;28;20047;-67
2022/03/05 02:45:55;;;;;;;30.20;11.38;;;4.30;62.00;;;;;;5114221;28;20031;-67
2022/03/05 02:48:21;;;;;;;34.72;12.35;;;4.20;62.00;;;;;;5114048;28;20042;-67
2022/03/05 02:50:48;;;;;;;28.08;10.93;;;4.30;62.10;;;;;;5114269;28;20027;-67
2022/03/05 02:53:14;;;;;;;29.85;11.43;;;4.20;62.10;;;;;;5114175;28;20083;-67
2022/03/05 02:55:41;;;;;;;29.55;11.85;;;4.20;62.20;;;;;;5114123;28;20023;-67
2022/03/05 02:58:06;;;;;;;29.15;11.93;;;4.20;62.30;;;;;;5113438;28;20024;-67
2022/03/05 03:00:32;;;;;;;31.23;12.27;;;4.10;62.40;;;;;;5114030;28;20032;-67
2022/03/05 03:02:59;;;;;;;32.80;12.00;;;4.10;62.50;;;;;;5113985;28;20020;-67
2022/03/05 03:05:25;;;;;;;30.45;11.88;;;4.10;62.50;;;;;;5113902;28;20024;-67
2022/03/05 03:07:51;;;;;;;27.55;11.38;;;4.10;62.40;;;;;;5113897;28;20027;-67
2022/03/05 03:10:17;;;;;;;29.42;11.85;;;4.10;62.50;;;;;;5113849;28;20035;-67
2022/03/05 03:12:44;;;;;;;29.17;10.85;;;4.00;62.70;;;;;;5113860;28;20052;-67
2022/03/05 03:15:12;;;;;;;28.80;10.85;;;3.90;62.80;;;;;;5113811;28;20025;-67
2022/03/05 03:17:47;;;;;;;28.95;11.27;;;4.00;62.90;;;;;;5095805;28;20016;-67
2022/03/05 03:20:17;;;;;;;29.63;10.70;;;3.90;62.80;;;;;;5113801;28;20032;-67
2022/03/05 03:22:43;;;;;;;29.20;11.60;;;3.80;62.70;;;;;;5113719;28;20090;-67
2022/03/05 03:25:10;;;;;;;30.08;11.50;;;3.80;63.10;;;;;;5113521;28;20057;-67
2022/03/05 03:27:36;;;;;;;31.38;12.00;;;3.80;63.20;;;;;;5113637;28;20023;-67
2022/03/05 03:30:03;;;;;;;27.92;11.50;;;3.80;63.10;;;;;;5095769;28;20072;-67
2022/03/05 03:32:29;;;;;;;27.73;11.20;;;3.80;62.90;;;;;;5113518;28;20046;-67
2022/03/05 03:34:54;;;;;;;27.17;11.60;;;3.80;63.10;;;;;;5113544;28;20024;-67
2022/03/05 03:37:20;;;;;;;27.65;10.95;;;3.80;63.00;;;;;;5113507;28;20398;-67
2022/03/05 03:39:46;;;;;;;29.75;11.02;;;3.80;63.00;;;;;;5113475;28;20058;-67
2022/03/05 03:42:11;;;;;;;28.83;12.02;;;3.70;62.80;;;;;;5113462;28;20066;-67
2022/03/05 03:44:37;;;;;;;28.40;11.70;;;3.70;63.00;;;;;;5113354;28;20031;-67
2022/03/05 03:47:03;;;;;;;31.90;12.02;;;3.60;63.00;;;;;;5095563;28;20054;-67
2022/03/05 03:49:29;;;;;;;32.63;11.75;;;3.70;63.00;;;;;;5113172;28;20041;-67
2022/03/05 03:51:54;;;;;;;29.23;11.88;;;3.70;62.90;;;;;;5113376;28;20035;-67
2022/03/05 03:54:20;;;;;;;28.70;11.25;;;3.60;63.40;;;;;;5113442;28;20024;-67
2022/03/05 03:56:45;;;;;;;29.10;11.10;;;3.50;63.60;;;;;;5113301;28;20079;-67
2022/03/05 03:59:11;;;;;;;32.95;11.50;;;3.50;63.70;;;;;;5113309;28;20047;-67
2022/03/05 04:01:37;;;;;;;29.17;11.77;;;3.50;63.90;;;;;;5113224;28;20039;-67
2022/03/05 04:04:02;;;;;;;31.38;11.43;;;3.40;63.90;;;;;;5113235;28;20032;-67
2022/03/05 04:08:41;;;;;;;28.75;12.63;;;3.30;64.10;;;;;;5113167;28;20046;-67
2022/03/05 04:09:13;;;;;;;30.70;11.32;;;3.40;64.70;;;;;;5114416;28;20056;-67
2022/03/05 04:11:39;;;;;;;29.70;11.35;;;3.20;64.70;;;;;;5117274;28;20028;-67
2022/03/05 04:14:05;;;;;;;32.53;11.65;;;3.10;65.00;;;;;;5117230;28;20039;-67
2022/03/05 04:16:30;;;;;;;27.10;11.15;;;3.10;65.10;;;;;;5117219;28;20059;-67
2022/03/05 04:18:56;;;;;;;32.58;12.90;;;3.10;65.30;;;;;;5117201;28;20040;-67
2022/03/05 04:21:21;;;;;;;30.55;12.00;;;3.10;65.80;;;;;;5117114;28;20035;-67
2022/03/05 04:23:47;;;;;;;30.42;11.60;;;3.00;65.70;;;;;;5116992;28;20029;-67
2022/03/05 04:26:13;;;;;;;29.88;12.27;;;2.90;66.10;;;;;;5116995;28;20036;-67
2022/03/05 04:28:38;;;;;;;36.40;12.65;;;2.90;67.30;;;;;;5116982;28;20034;-67
2022/03/05 04:31:04;;;;;;;29.27;11.55;;;2.80;66.50;;;;;;5116961;28;20162;-67
2022/03/05 04:33:30;;;;;;;31.48;11.93;;;2.80;66.50;;;;;;5116862;28;20016;-67
2022/03/05 04:35:56;;;;;;;30.50;11.43;;;2.90;66.20;;;;;;5116827;28;20031;-67
2022/03/05 04:38:21;;;;;;;28.00;11.75;;;3.00;65.90;;;;;;5116790;28;20088;-67
2022/03/05 04:40:47;;;;;;;31.85;12.07;;;3.10;65.60;;;;;;5116747;28;20031;-67
2022/03/05 04:43:13;;;;;;;31.20;12.57;;;3.10;65.50;;;;;;5116703;28;20032;-67
2022/03/05 04:45:40;;;;;;;31.42;12.18;;;3.00;65.50;;;;;;5116590;28;20091;-67
2022/03/05 04:48:06;;;;;;;32.80;12.35;;;2.90;66.10;;;;;;5116617;28;20021;-67
2022/03/05 04:50:31;;;;;;;32.35;12.13;;;2.90;66.40;;;;;;5116441;28;20048;-67
2022/03/05 04:52:57;;;;;;;33.55;12.43;;;2.80;66.20;;;;;;5116567;28;20047;-67
2022/03/05 04:55:23;;;;;;;34.97;12.70;;;2.80;66.40;;;;;;5116519;28;20034;-67
2022/03/05 04:57:48;;;;;;;30.67;11.43;;;2.80;66.40;;;;;;5098580;28;20032;-67
2022/03/05 05:00:15;;;;;;;35.50;12.32;;;2.80;66.20;;;;;;5116389;28;20103;-67
2022/03/05 05:02:41;;;;;;;34.25;12.82;;;2.80;66.20;;;;;;5116401;28;20062;-67
2022/03/05 05:05:07;;;;;;;33.90;11.63;;;2.80;66.30;;;;;;5098235;28;20032;-67
2022/03/05 05:07:33;;;;;;;31.52;12.27;;;2.70;66.50;;;;;;5116265;28;20024;-67
2022/03/05 05:09:59;;;;;;;31.98;11.85;;;2.80;66.60;;;;;;5116219;28;20062;-67
2022/03/05 05:12:24;;;;;;;34.67;12.10;;;2.80;66.40;;;;;;5116178;28;20042;-67
2022/03/05 05:14:50;;;;;;;34.72;12.77;;;2.80;66.40;;;;;;5116161;28;20092;-67
2022/03/05 05:17:16;;;;;;;30.08;11.18;;;2.70;66.30;;;;;;5116128;28;20032;-67
2022/03/05 05:19:41;;;;;;;30.33;11.73;;;2.80;66.20;;;;;;5116184;28;20058;-67
2022/03/05 05:22:07;;;;;;;34.50;12.80;;;2.80;66.30;;;;;;5115302;28;20082;-67
2022/03/05 05:24:35;;;;;;;33.08;12.00;;;2.70;66.30;;;;;;5115769;28;20027;-67
2022/03/05 05:27:01;;;;;;;30.98;12.15;;;2.70;66.20;;;;;;5115885;28;20027;-67
2022/03/05 05:29:27;;;;;;;40.45;13.15;;;2.80;66.00;;;;;;5115821;28;20092;-67
2022/03/05 05:31:53;;;;;;;31.98;11.85;;;2.70;65.90;;;;;;5115766;28;20012;-67
2022/03/05 05:34:19;;;;;;;41.33;13.13;;;2.70;65.90;;;;;;5097763;28;20055;-67
2022/03/05 05:36:45;;;;;;;36.53;11.88;;;2.70;66.00;;;;;;5097705;28;20032;-67
2022/03/05 05:39:11;;;;;;;32.50;11.68;;;2.80;65.90;;;;;;5115711;28;20050;-67
2022/03/05 05:41:38;;;;;;;35.05;12.07;;;2.80;65.80;;;;;;5115586;28;20054;-67
2022/03/05 05:44:06;;;;;;;33.15;12.18;;;2.80;65.60;;;;;;5115580;28;20028;-67
2022/03/05 05:46:32;;;;;;;34.25;12.88;;;2.90;65.60;;;;;;5115435;28;20040;-67
2022/03/05 05:48:58;;;;;;;34.97;12.32;;;2.90;65.30;;;;;;5115315;28;20032;-67
2022/03/05 05:51:25;;;;;;;43.97;13.45;;;2.90;65.20;;;;;;5115401;28;20078;-67
2022/03/05 05:53:51;;;;;;;34.28;12.32;;;2.80;65.40;;;;;;5115503;28;20044;-67
2022/03/05 05:56:17;;;;;;;36.10;12.82;;;2.70;65.60;;;;;;5115303;28;20028;-67
2022/03/05 05:58:43;;;;;;;36.83;12.82;;;2.60;65.80;;;;;;5097457;28;20088;-67
2022/03/05 06:01:09;;;;;;;35.97;12.73;;;2.60;65.80;;;;;;5115219;28;20034;-67
2022/03/05 06:03:35;;;;;;;31.85;12.73;;;2.70;65.70;;;;;;5115198;28;20039;-67
2022/03/05 06:06:00;;;;;;;36.78;13.25;;;2.80;65.60;;;;;;5115055;28;20036;-67
2022/03/05 06:08:26;;;;;;;33.00;13.18;;;2.80;65.50;;;;;;5115209;28;20025;-67
2022/03/05 06:10:54;;;;;;;34.22;11.43;;;2.70;65.90;;;;;;5115054;28;20042;-67
2022/03/05 06:13:20;;;;;;;28.63;12.10;;;2.60;65.80;;;;;;5115032;28;20096;-67
2022/03/05 06:15:46;;;;;;;37.53;13.07;;;2.50;66.10;;;;;;5114918;28;20028;-67
2022/03/05 06:18:12;;;;;;;33.42;11.52;;;2.50;66.10;;;;;;5114900;28;20066;-67
2022/03/05 06:20:38;;;;;;;35.28;12.52;;;2.40;66.20;;;;;;5114802;28;20032;-67
2022/03/05 06:23:04;;;;;;;35.53;11.65;;;2.40;66.50;;;;;;5114805;28;20039;-67
2022/03/05 06:25:30;;;;;;;36.38;13.52;;;2.30;66.70;;;;;;5114599;28;20540;-67
2022/03/05 06:27:55;;;;;;;32.08;11.48;;;2.20;66.80;;;;;;5114677;28;20040;-67
2022/03/05 06:30:21;;;;;;;37.50;13.65;;;2.30;66.90;;;;;;5096771;28;20067;-67
2022/03/05 06:32:47;;;;;;;38.08;13.82;;;2.20;67.20;;;;;;5113609;28;20089;-67
2022/03/05 06:35:12;;;;;;;35.92;12.48;;;2.20;67.10;;;;;;5114551;28;20024;-67
2022/03/05 06:37:38;;;;;;;36.70;13.55;;;2.40;66.90;;;;;;5096688;28;20043;-68
2022/03/05 06:40:05;;;;;;;35.78;13.25;;;2.40;67.00;;;;;;5096474;28;20036;-67
2022/03/05 06:42:31;;;;;;;32.85;12.77;;;2.40;66.80;;;;;;5114552;28;20024;-67
2022/03/05 06:44:57;;;;;;;42.05;13.70;;;2.40;66.80;;;;;;5114283;28;20028;-67
2022/03/05 06:47:22;;;;;;;37.28;12.05;;;2.40;66.80;;;;;;5114360;28;20032;-67
2022/03/05 06:49:48;;;;;;;37.72;12.82;;;2.50;67.20;;;;;;5114085;28;20040;-67
2022/03/05 06:52:15;;;;;;;39.13;13.57;;;2.40;67.10;;;;;;5114253;28;20066;-67
2022/03/05 06:54:42;;;;;;;39.40;13.27;;;2.40;67.30;;;;;;5114214;28;20024;-67
2022/03/05 06:57:08;;;;;;;39.88;12.98;;;2.40;67.50;;;;;;5114151;28;20024;-67
2022/03/05 06:59:33;;;;;;;35.33;12.40;;;2.40;67.60;;;;;;5114125;28;20091;-67
2022/03/05 07:01:59;;;;;;;34.42;12.57;;;2.40;68.00;;;;;;5114085;28;20020;-67
2022/03/05 07:04:25;;;;;;;36.38;12.45;;;2.40;67.90;;;;;;5114123;28;20020;-67
2022/03/05 07:06:50;;;;;;;37.22;13.15;;;2.40;68.40;;;;;;5113899;28;20058;-67
2022/03/05 07:09:16;;;;;;;39.45;12.15;;;2.50;68.20;;;;;;5113961;28;20070;-67
2022/03/05 07:11:42;;;;;;;37.05;13.35;;;2.50;68.30;;;;;;5113889;28;20020;-67
2022/03/05 07:14:07;;;;;;;33.17;12.20;;;2.50;68.70;;;;;;5113846;28;20032;-67
2022/03/05 07:16:33;;;;;;;36.95;12.80;;;2.50;68.60;;;;;;5113857;28;20020;-67
2022/03/05 07:18:59;;;;;;;35.95;13.23;;;2.50;68.70;;;;;;5113806;28;20028;-67
2022/03/05 07:21:24;;;;;;;39.10;13.00;;;2.50;68.90;;;;;;5113760;28;20040;-67
2022/03/05 07:23:50;;;;;;;39.40;14.30;;;2.50;68.70;;;;;;5113616;28;20028;-67
2022/03/05 07:26:17;;;;;;;36.08;13.20;;;2.60;68.80;;;;;;5113614;28;20046;-65
2022/03/05 07:28:44;;;;;;;40.75;13.32;;;2.60;68.90;;;;;;5079096;28;20024;-66
2022/03/05 07:31:09;;;;;;;39.83;12.88;;;2.70;68.80;;;;;;5113651;28;20083;-65
2022/03/05 07:33:35;;;;;;;39.17;13.55;;;2.70;68.90;;;;;;5095747;28;20028;-65
2022/03/05 07:36:04;;;;;;;42.47;14.32;;;2.70;69.40;;;;;;5095681;28;20039;-64
2022/03/05 07:38:30;;;;;;;36.30;13.48;;;2.70;69.20;;;;;;5113517;28;20035;-64
2022/03/05 07:40:56;;;;;;;41.85;13.13;;;2.70;69.20;;;;;;5113517;28;20055;-65
2022/03/05 07:43:22;;;;;;;35.30;13.40;;;2.80;69.70;;;;;;5095692;28;20054;-72
2022/03/05 07:45:47;;;;;;;41.30;13.77;;;2.80;69.50;;;;;;5113165;28;20036;-72
2022/03/05 07:48:14;;;;;;;37.30;12.35;;;2.80;69.20;;;;;;5113223;28;20020;-71
2022/03/05 07:50:41;;;;;;;36.88;13.02;;;2.90;70.20;;;;;;5113437;28;20050;-72
2022/03/05 07:53:06;;;;;;;37.40;12.80;;;2.80;69.80;;;;;;5113386;28;20083;-73
2022/03/05 07:55:32;;;;;;;35.90;13.43;;;2.80;70.20;;;;;;5113347;28;20039;-72
2022/03/05 07:57:58;;;;;;;35.53;13.65;;;2.90;70.20;;;;;;5113473;28;20024;-72
2022/03/05 08:00:23;;;;;;;33.40;12.57;;;3.00;70.70;;;;;;5113476;28;20165;-72
2022/03/05 08:02:50;;;;;;;36.30;12.93;;;3.00;70.30;;;;;;5113426;28;20028;-72
2022/03/05 08:05:16;;;;;;;39.58;14.15;;;3.00;71.10;;;;;;5113208;28;20043;-72
2022/03/05 08:07:42;;;;;;;35.72;12.70;;;3.00;70.70;;;;;;5113285;28;20039;-72
2022/03/05 08:10:08;;;;;;;34.20;12.88;;;3.10;70.80;;;;;;5113133;28;20032;-72
2022/03/05 08:12:35;;;;;;;38.42;13.65;;;3.10;71.30;;;;;;5113148;28;20051;-72
2022/03/05 08:15:01;;;;;;;34.30;11.20;;;3.10;71.10;;;;;;5095372;28;20091;-72
2022/03/05 08:17:27;;;;;;;39.22;13.73;;;3.10;71.20;;;;;;5113132;28;20047;-72
2022/03/05 08:19:52;;;;;;;39.55;13.77;;;3.20;71.70;;;;;;5113121;28;20054;-71
2022/03/05 08:22:18;;;;;;;36.55;13.45;;;3.20;71.20;;;;;;5095107;28;20031;-72
2022/03/05 08:24:43;;;;;;;36.10;14.10;;;3.20;71.20;;;;;;5112888;28;20085;-72
2022/03/05 08:27:09;;;;;;;36.65;13.07;;;3.30;71.10;;;;;;5113024;28;20034;-71
2022/03/05 08:29:35;;;;;;;38.08;12.27;;;3.30;70.90;;;;;;5095198;28;20040;-71
2022/03/05 08:32:00;;;;;;;35.03;12.20;;;3.30;70.40;;;;;;5112995;28;20055;-71
2022/03/05 08:34:26;;;;;;;47.15;14.68;;;3.30;70.50;;;;;;5112941;28;20110;-71
2022/03/05 08:36:52;;;;;;;41.53;13.60;;;3.40;71.50;;;;;;5112825;28;20054;-65
2022/03/05 08:39:17;;;;;;;44.25;12.63;;;3.50;71.40;;;;;;5112924;28;20092;-65
2022/03/05 08:41:43;;;;;;;34.20;12.45;;;3.60;70.80;;;;;;5112895;28;20028;-66
2022/03/05 08:44:08;;;;;;;37.30;12.65;;;3.60;71.20;;;;;;5112910;28;20036;-67
2022/03/05 08:46:34;;;;;;;40.63;14.05;;;3.70;70.90;;;;;;5112756;28;20040;-66
2022/03/05 08:49:00;;;;;;;37.25;14.23;;;3.80;70.60;;;;;;5112471;28;20052;-67
2022/03/05 08:51:25;;;;;;;40.83;12.60;;;3.70;69.90;;;;;;5112796;28;20028;-66
2022/03/05 08:53:51;;;;;;;35.47;12.90;;;3.80;69.80;;;;;;5112802;28;20048;-66
2022/03/05 08:56:16;;;;;;;43.83;15.27;;;3.90;69.70;;;;;;5113869;28;20032;-67
2022/03/05 08:58:42;;;;;;;37.03;12.90;;;4.10;70.40;;;;;;5098588;28;20053;-66
2022/03/05 09:01:08;;;;;;;40.28;13.38;;;4.10;69.50;;;;;;5116382;28;20032;-66
2022/03/05 09:03:34;;;;;;;39.95;13.43;;;4.20;69.40;;;;;;5116371;28;20024;-66
2022/03/05 09:06:00;;;;;;;43.40;14.55;;;4.40;68.70;;;;;;5116267;28;20020;-66
2022/03/05 09:08:26;;;;;;;43.70;15.38;;;4.40;68.60;;;;;;5116260;28;20094;-66
2022/03/05 09:10:51;;;;;;;38.55;14.32;;;4.40;67.50;;;;;;5116320;28;20032;-66
2022/03/05 09:13:17;;;;;;;36.28;14.88;;;4.50;68.60;;;;;;5116186;28;20016;-66
2022/03/05 09:15:42;;;;;;;43.47;14.25;;;4.70;69.10;;;;;;5098134;28;20104;-65
2022/03/05 09:18:08;;;;;;;40.13;14.60;;;4.90;68.30;;;;;;5115894;28;20111;-65
2022/03/05 09:20:34;;;;;;;34.58;13.73;;;4.90;67.10;;;;;;5115964;28;20093;-65
2022/03/05 09:23:01;;;;;;;36.63;13.70;;;4.90;66.90;;;;;;5115954;28;20087;-65
2022/03/05 09:25:27;;;;;;;34.25;12.70;;;5.00;67.20;;;;;;5115790;28;20031;-65
2022/03/05 09:27:53;;;;;;;39.97;14.48;;;4.90;66.80;;;;;;5115848;28;20020;-65
2022/03/05 09:30:19;;;;;;;35.30;14.23;;;5.00;68.00;;;;;;5115896;28;20047;-66
2022/03/05 09:32:45;;;;;;;35.75;14.15;;;5.10;67.00;;;;;;5097817;28;20020;-66
2022/03/05 09:35:11;;;;;;;32.83;11.93;;;5.20;66.40;;;;;;5115749;28;20470;-66
2022/03/05 09:37:37;;;;;;;41.17;14.50;;;5.10;66.50;;;;;;5115686;28;20020;-66
2022/03/05 09:40:04;;;;;;;40.25;14.57;;;5.20;67.20;;;;;;5097753;28;20031;-66
2022/03/05 09:42:30;;;;;;;34.80;13.18;;;5.40;66.70;;;;;;5115644;28;20028;-66
2022/03/05 09:44:55;;;;;;;38.85;13.38;;;5.40;66.20;;;;;;5115478;28;20039;-71
2022/03/05 09:47:23;;;;;;;41.05;14.57;;;5.50;66.10;;;;;;5115530;28;20020;-71
2022/03/05 09:49:49;;;;;;;39.35;14.25;;;5.70;66.10;;;;;;5115255;28;20048;-71
2022/03/05 09:52:14;;;;;;;35.85;13.50;;;5.90;66.00;;;;;;5097380;28;20062;-71
2022/03/05 09:54:40;;;;;;;40.28;15.07;;;6.00;66.00;;;;;;5115343;28;20024;-71
2022/03/05 09:57:11;;;;;;;38.80;15.10;;;6.20;65.80;;;;;;5115303;28;20022;-71
2022/03/05 09:59:36;;;;;;;35.63;13.52;;;6.40;65.30;;;;;;5115379;28;20050;-71
2022/03/05 10:02:05;;;;;;;35.97;12.98;;;6.50;63.00;;;;;;5115206;28;20028;-72
2022/03/05 10:04:31;;;;;;;36.97;14.52;;;6.50;63.20;;;;;;5115157;28;20020;-66
2022/03/05 10:07:19;;;;;;;35.70;13.60;;;6.50;61.40;;;;;;5114875;28;20028;-65
2022/03/05 10:09:47;;;;;;;39.30;14.30;;;6.50;63.00;;;;;;5115090;28;20024;-65
2022/03/05 10:12:33;;;;;;;40.10;14.23;;;6.70;63.40;;;;;;5115161;28;20020;-65
2022/03/05 10:15:13;;;;;;;41.33;14.23;;;6.60;62.30;;;;;;5114964;28;20028;-65
2022/03/05 10:17:53;;;;;;;41.47;13.82;;;6.70;63.50;;;;;;5115047;28;20031;-65
2022/03/05 10:20:22;;;;;;;35.17;14.63;;;6.90;63.70;;;;;;5114917;28;20028;-65
2022/03/05 10:22:58;;;;;;;32.75;13.40;;;7.10;61.90;;;;;;5114793;28;20031;-65
2022/03/05 10:25:40;;;;;;;41.35;14.63;;;7.10;62.00;;;;;;5096853;28;20046;-65
2022/03/05 10:28:18;;;;;;;38.83;15.70;;;7.20;62.00;;;;;;5114851;28;20016;-65
2022/03/05 10:30:52;;;;;;;35.40;14.55;;;7.30;62.00;;;;;;5114658;28;20078;-65
2022/03/05 10:33:24;;;;;;;36.38;14.15;;;7.50;61.00;;;;;;5114614;28;20050;-65
2022/03/05 10:35:50;;;;;;;35.95;13.88;;;7.50;60.10;;;;;;5114561;28;20030;-65
2022/03/05 10:38:16;;;;;;;39.55;15.38;;;7.50;59.50;;;;;;5080074;28;20024;-65
2022/03/05 10:40:41;;;;;;;34.95;13.45;;;7.50;58.30;;;;;;5114453;28;20027;-65
2022/03/05 10:43:08;;;;;;;37.65;13.88;;;7.50;58.50;;;;;;5114495;28;20039;-65
2022/03/05 10:45:51;;;;;;;34.97;14.77;;;7.70;60.40;;;;;;5114353;28;20035;-65
2022/03/05 10:48:43;;;;;;;32.25;13.43;;;7.80;59.00;;;;;;5114329;28;20093;-65
2022/03/05 10:51:14;;;;;;;33.13;14.13;;;7.60;55.90;;;;;;5111576;28;20079;-65
2022/03/05 10:53:40;;;;;;;37.78;15.63;;;7.60;57.50;;;;;;5114256;28;20025;-65
2022/03/05 10:56:27;;;;;;;38.05;14.73;;;7.70;59.10;;;;;;5114259;28;20039;-65
2022/03/05 10:59:05;;;;;;;36.33;14.75;;;8.00;58.70;;;;;;5114139;28;20027;-65
2022/03/05 11:01:33;;;;;;;33.78;13.38;;;8.00;57.70;;;;;;5114249;28;20028;-65
2022/03/05 11:03:59;;;;;;;37.92;14.20;;;8.20;58.00;;;;;;5114011;28;20088;-65
2022/03/05 11:06:25;;;;;;;37.58;15.90;;;8.30;56.60;;;;;;5113922;28;20032;-65
2022/03/05 11:08:51;;;;;;;33.83;14.55;;;8.30;55.30;;;;;;5114070;28;20114;-65
2022/03/05 11:11:19;;;;;;;34.47;14.85;;;8.40;56.60;;;;;;5113920;28;20020;-65
2022/03/05 11:13:45;;;;;;;34.75;14.35;;;8.60;57.00;;;;;;5096238;28;20031;-66
2022/03/05 11:16:12;;;;;;;34.45;14.18;;;8.60;53.70;;;;;;5113852;28;20024;-66
2022/03/05 11:18:42;;;;;;;38.00;15.07;;;8.50;53.00;;;;;;5095263;28;20050;-66
2022/03/05 11:21:09;;;;;;;40.10;15.15;;;8.40;53.50;;;;;;5113826;28;20028;-66
2022/03/05 11:23:36;;;;;;;35.03;14.63;;;8.50;55.20;;;;;;5113605;28;20024;-66
2022/03/05 11:26:05;;;;;;;33.70;14.32;;;8.50;55.20;;;;;;5113617;28;20079;-66
2022/03/05 11:28:45;;;;;;;36.67;14.90;;;8.80;56.10;;;;;;5113638;28;20048;-66
2022/03/05 11:31:20;;;;;;;39.75;14.95;;;9.00;55.30;;;;;;5113682;28;20020;-66
2022/03/05 11:33:47;;;;;;;38.10;15.30;;;9.10;55.10;;;;;;5113591;28;20016;-66
2022/03/05 11:36:29;;;;;;;39.67;15.57;;;9.30;55.30;;;;;;5113570;28;20050;-66
2022/03/05 11:39:13;;;;;;;38.60;14.93;;;9.40;54.00;;;;;;5113593;28;20031;-66
2022/03/05 11:42:01;;;;;;;34.40;15.40;;;9.30;53.80;;;;;;5113461;28;20026;-66
2022/03/05 11:44:43;;;;;;;37.80;16.42;;;9.30;52.50;;;;;;5113596;28;20028;-71
2022/03/05 11:47:18;;;;;;;34.90;15.35;;;9.20;53.30;;;;;;5113471;28;20024;-71
2022/03/05 11:49:56;;;;;;;34.45;14.80;;;9.30;54.10;;;;;;5113228;28;20133;-71
2022/03/05 11:52:23;;;;;;;32.97;14.50;;;9.60;54.60;;;;;;5113382;28;20101;-71
2022/03/05 11:55:10;;;;;;;36.17;14.93;;;9.80;54.40;;;;;;5113295;28;20020;-71
2022/03/05 11:57:57;;;;;;;37.97;15.55;;;10.10;54.10;;;;;;5113322;28;20020;-71
2022/03/05 12:00:27;;;;;;;36.33;15.27;;;10.20;53.50;;;;;;5102677;28;20029;-71
2022/03/05 12:02:54;;;;;;;36.20;16.00;;;10.30;51.90;;;;;;5113250;28;20102;-72
2022/03/05 12:05:38;;;;;;;34.13;15.43;;;10.30;50.90;;;;;;5113165;28;20054;-71
2022/03/05 12:08:04;;;;;;;33.03;14.30;;;10.10;50.00;;;;;;5113206;28;20035;-71
2022/03/05 12:10:31;;;;;;;33.50;14.63;;;10.10;51.20;;;;;;5113193;28;20024;-66
2022/03/05 12:12:56;;;;;;;34.33;13.35;;;10.10;51.30;;;;;;5113146;28;20044;-65
2022/03/05 12:15:39;;;;;;;37.38;14.65;;;10.20;50.20;;;;;;5113155;28;20028;-65
2022/03/05 12:18:08;;;;;;;34.97;14.35;;;10.10;48.20;;;;;;5113256;28;20081;-65
2022/03/05 12:20:36;;;;;;;36.22;16.25;;;10.00;50.30;;;;;;5113041;28;20028;-66
2022/03/05 12:23:04;;;;;;;33.70;14.35;;;10.20;51.60;;;;;;5113128;28;20045;-66
2022/03/05 12:25:33;;;;;;;32.33;15.25;;;10.40;51.70;;;;;;5113013;28;20030;-65
2022/03/05 12:28:00;;;;;;;36.72;15.88;;;10.70;51.60;;;;;;5113051;28;20095;-65
2022/03/05 12:30:35;;;;;;;31.02;14.60;;;10.80;49.50;;;;;;5112969;28;20044;-66
2022/03/05 12:33:03;;;;;;;36.58;16.23;;;10.80;49.40;;;;;;5116966;28;20042;-66
2022/03/05 12:35:29;;;;;;;35.83;14.75;;;10.80;50.00;;;;;;5116882;28;20101;-66